Time;durP1;ratioP1;P1;durP2;ratioP2;P2;SDS_P1;SDS_P2;PMS_P1;PMS_P2;Temp;Humidity;BMP_temperature;BMP_pressure;BME280_temperature;BME280_humidity;BME280_pressure;Samples;Min_cycle;Max_cycle;Signal;HPM_P1;HPM_P2
2023/03/03 00:00:53;;;;;;;27.40;7.55;;;21.50;34.10;;;;;;5069390;28;20111;-67
2023/03/03 00:03:22;;;;;;;19.02;7.60;;;21.50;35.10;;;;;;5067798;28;20126;-70
2023/03/03 00:05:49;;;;;;;80.95;5.05;;;21.50;35.50;;;;;;5068579;28;20082;-67
2023/03/03 00:08:17;;;;;;;8.45;1.52;;;21.30;35.70;;;;;;5069975;28;20191;-73
2023/03/03 00:10:44;;;;;;;147.88;7.70;;;21.20;36.00;;;;;;5051547;28;20067;-67
2023/03/03 00:13:19;;;;;;;61.15;3.45;;;21.00;35.80;;;;;;5071831;28;20114;-70
2023/03/03 00:15:47;;;;;;;144.40;6.27;;;21.00;35.30;;;;;;5069245;28;20069;-69
2023/03/03 00:18:40;;;;;;;1531.72;87.47;;;20.90;35.90;;;;;;5068502;28;20088;-71
2023/03/03 00:21:22;;;;;;;377.17;17.73;;;21.00;36.00;;;;;;5067215;28;20082;-68
2023/03/03 00:23:48;;;;;;;53.35;2.80;;;20.90;36.00;;;;;;5065667;28;20085;-74
2023/03/03 00:26:30;;;;;;;1171.15;90.70;;;20.80;35.50;;;;;;5065508;28;20424;-70
2023/03/03 00:28:56;;;;;;;294.45;17.95;;;20.80;35.90;;;;;;5065327;28;20080;-69
2023/03/03 00:31:36;;;;;;;7.65;1.55;;;20.80;36.70;;;;;;5065269;28;20096;-68
2023/03/03 00:34:26;;;;;;;18.58;1.70;;;20.80;35.00;;;;;;5064299;28;20167;-68
2023/03/03 00:36:57;;;;;;;16.45;2.17;;;20.80;36.10;;;;;;5064736;28;20100;-70
2023/03/03 00:39:38;;;;;;;64.32;4.30;;;20.70;36.10;;;;;;5065866;28;20601;-71
2023/03/03 00:42:16;;;;;;;9.60;2.15;;;20.60;36.10;;;;;;5063193;28;20112;-71
2023/03/03 00:44:59;;;;;;;8.55;1.73;;;20.60;34.70;;;;;;5067548;28;20162;-71
2023/03/03 00:47:36;;;;;;;7.10;1.50;;;20.50;34.60;;;;;;5072294;28;20109;-71
2023/03/03 00:50:05;;;;;;;32.50;2.47;;;20.50;34.40;;;;;;5074862;28;20124;-70
2023/03/03 00:52:39;;;;;;;16.55;1.42;;;20.30;35.10;;;;;;5071054;28;20430;-71
2023/03/03 00:55:07;;;;;;;4.07;0.80;;;20.30;34.90;;;;;;5069766;28;20135;-69
2023/03/03 00:57:34;;;;;;;18.17;1.23;;;20.20;34.90;;;;;;5070317;28;20122;-73
2023/03/03 01:00:00;;;;;;;8.65;1.80;;;20.20;36.30;;;;;;5071746;28;20076;-71
2023/03/03 01:02:26;;;;;;;16.77;1.88;;;20.10;35.60;;;;;;5069737;28;20080;-70
2023/03/03 01:04:56;;;;;;;26.40;2.05;;;20.10;36.40;;;;;;5071745;28;20186;-69
2023/03/03 01:07:23;;;;;;;14.50;2.40;;;19.90;36.40;;;;;;5069920;28;20168;-67
2023/03/03 01:09:49;;;;;;;16.95;2.22;;;19.80;37.00;;;;;;5071391;28;20064;-73
2023/03/03 01:12:16;;;;;;;9.57;1.63;;;19.80;36.70;;;;;;5071098;28;20074;-71
2023/03/03 01:14:44;;;;;;;23.77;2.45;;;19.70;35.10;;;;;;5070413;28;20525;-70
2023/03/03 01:17:10;;;;;;;25.17;2.40;;;19.70;36.50;;;;;;5071140;28;20076;-71
2023/03/03 01:19:36;;;;;;;9.40;1.95;;;19.60;37.40;;;;;;5071859;28;20071;-71
2023/03/03 01:22:03;;;;;;;8.15;1.52;;;19.50;37.00;;;;;;5070995;28;20067;-73
2023/03/03 01:24:29;;;;;;;5.07;1.65;;;19.40;37.30;;;;;;5070291;28;20553;-69
2023/03/03 01:26:56;;;;;;;16.85;1.85;;;19.30;36.90;;;;;;5069858;28;20068;-68
2023/03/03 01:29:22;;;;;;;11.82;1.98;;;19.10;37.90;;;;;;5070697;28;20079;-73
2023/03/03 01:31:48;;;;;;;9.77;2.20;;;19.00;37.70;;;;;;5069531;28;20083;-70
2023/03/03 01:34:15;;;;;;;750.72;48.00;;;19.00;38.70;;;;;;5071901;28;20076;-69
2023/03/03 01:36:41;;;;;;;647.58;36.20;;;18.80;38.60;;;;;;5070030;28;20151;-70
2023/03/03 01:39:10;;;;;;;295.80;15.63;;;18.70;38.80;;;;;;5070300;28;20083;-72
2023/03/03 01:41:36;;;;;;;25.63;2.30;;;18.60;39.40;;;;;;5069560;28;20113;-68
2023/03/03 01:44:03;;;;;;;38.13;3.40;;;18.50;39.00;;;;;;5071273;28;20146;-68
2023/03/03 01:46:51;;;;;;;111.97;6.80;;;18.40;43.10;;;;;;5067356;28;20502;-68
2023/03/03 01:49:39;;;;;;;19.88;3.65;;;18.30;43.90;;;;;;5071578;28;20614;-68
2023/03/03 01:52:34;;;;;;;16.20;4.60;;;18.20;41.00;;;;;;5070261;28;20150;-68
2023/03/03 01:55:05;;;;;;;17.60;8.68;;;18.00;40.60;;;;;;5067914;28;20095;-67
2023/03/03 01:57:37;;;;;;;18.58;6.60;;;17.80;41.30;;;;;;5070635;28;20075;-68
2023/03/03 02:00:05;;;;;;;13.55;6.30;;;17.80;41.20;;;;;;5072911;28;20068;-69
2023/03/03 02:02:33;;;;;;;54.42;7.30;;;17.70;42.20;;;;;;5068879;28;20076;-68
2023/03/03 02:05:00;;;;;;;32.88;7.18;;;17.60;41.50;;;;;;5069267;28;20464;-71
2023/03/03 02:07:30;;;;;;;158.00;10.60;;;17.50;43.60;;;;;;5068013;28;20151;-71
2023/03/03 02:10:06;;;;;;;38.70;13.35;;;17.30;42.90;;;;;;5068424;28;20079;-69
2023/03/03 02:12:42;;;;;;;23.23;5.53;;;17.30;43.00;;;;;;5067923;28;20075;-74
2023/03/03 02:15:31;;;;;;;45.97;6.45;;;17.20;43.60;;;;;;5068489;28;20091;-72
2023/03/03 02:18:03;;;;;;;96.28;8.43;;;17.10;42.90;;;;;;5070652;28;20074;-67
2023/03/03 02:21:02;;;;;;;25.77;7.40;;;17.00;44.30;;;;;;5070350;28;20142;-69
2023/03/03 02:23:34;;;;;;;41.13;8.40;;;16.90;44.10;;;;;;5013049;28;20152;-72
2023/03/03 02:26:11;;;;;;;26.95;6.28;;;16.80;45.60;;;;;;5014959;28;20089;-66
2023/03/03 02:28:39;;;;;;;29.50;6.10;;;16.70;46.00;;;;;;5011906;28;20144;-67
2023/03/03 02:31:12;;;;;;;49.00;6.65;;;16.60;46.20;;;;;;5015325;28;20112;-68
2023/03/03 02:33:40;;;;;;;42.05;6.40;;;16.50;49.00;;;;;;5012638;28;20125;-66
2023/03/03 02:36:10;;;;;;;24.70;5.80;;;16.50;47.30;;;;;;5013250;28;20473;-68
2023/03/03 02:38:46;;;;;;;28.60;5.60;;;16.40;46.60;;;;;;5012267;28;20182;-66
2023/03/03 02:41:54;;;;;;;43.17;6.50;;;16.40;46.80;;;;;;5015746;28;20084;-66
2023/03/03 02:44:23;;;;;;;32.50;5.47;;;16.40;46.30;;;;;;4913162;29;20644;-68
2023/03/03 02:46:51;;;;;;;34.38;6.57;;;16.30;47.00;;;;;;4914503;29;20087;-69
2023/03/03 02:49:22;;;;;;;33.70;6.93;;;16.20;47.90;;;;;;4915300;29;20179;-66
2023/03/03 02:51:49;;;;;;;39.03;7.95;;;16.10;47.70;;;;;;4914204;29;20102;-67
2023/03/03 02:54:18;;;;;;;38.53;7.90;;;16.10;48.10;;;;;;4916285;29;20192;-67
2023/03/03 02:56:45;;;;;;;54.88;9.63;;;16.00;48.50;;;;;;4911935;29;20078;-66
2023/03/03 02:59:12;;;;;;;51.13;11.30;;;16.00;49.60;;;;;;4952458;28;20097;-66
2023/03/03 03:01:39;;;;;;;46.60;11.13;;;15.90;49.40;;;;;;4987262;28;20078;-67
2023/03/03 03:04:11;;;;;;;43.08;13.60;;;15.80;48.20;;;;;;4988345;28;20481;-68
2023/03/03 03:06:38;;;;;;;47.83;15.02;;;15.80;48.40;;;;;;4988036;28;20081;-66
2023/03/03 03:09:06;;;;;;;44.58;14.68;;;15.80;48.10;;;;;;4988571;28;20145;-67
2023/03/03 03:11:36;;;;;;;55.80;17.23;;;15.80;47.10;;;;;;4988720;28;20164;-67
2023/03/03 03:14:05;;;;;;;68.53;16.38;;;15.70;47.00;;;;;;4987301;28;20093;-68
2023/03/03 03:16:31;;;;;;;60.92;14.85;;;15.70;47.90;;;;;;4987152;28;20130;-67
2023/03/03 03:19:00;;;;;;;57.60;14.88;;;15.60;49.50;;;;;;4989085;28;20078;-66
2023/03/03 03:21:27;;;;;;;58.17;13.45;;;15.50;49.70;;;;;;5053451;28;20091;-65
2023/03/03 03:23:54;;;;;;;69.25;15.55;;;15.50;49.10;;;;;;5068851;28;20111;-66
2023/03/03 03:26:21;;;;;;;79.18;15.38;;;15.40;48.80;;;;;;5069244;28;20400;-66
2023/03/03 03:28:48;;;;;;;86.10;16.33;;;15.40;48.70;;;;;;5068576;28;20162;-67
2023/03/03 03:31:16;;;;;;;92.50;16.67;;;15.30;48.90;;;;;;5070107;28;20068;-67
2023/03/03 03:33:43;;;;;;;112.13;17.38;;;15.30;48.20;;;;;;5069141;28;20544;-66
2023/03/03 03:36:10;;;;;;;115.15;18.35;;;15.40;48.50;;;;;;5069148;28;20080;-68
2023/03/03 03:38:37;;;;;;;90.38;17.05;;;15.40;48.00;;;;;;5069201;28;20114;-66
2023/03/03 03:41:04;;;;;;;111.97;16.63;;;15.30;47.90;;;;;;5068297;28;20080;-65
2023/03/03 03:43:31;;;;;;;93.57;15.15;;;15.30;48.50;;;;;;5068993;28;20122;-65
2023/03/03 03:45:58;;;;;;;85.63;14.25;;;15.30;50.20;;;;;;5068340;28;20080;-66
2023/03/03 03:48:24;;;;;;;108.05;16.73;;;15.30;49.80;;;;;;5068787;28;20082;-65
2023/03/03 03:50:51;;;;;;;101.75;15.23;;;15.20;50.40;;;;;;5069045;28;20072;-66
2023/03/03 03:53:18;;;;;;;112.63;16.75;;;15.20;50.10;;;;;;5068940;28;20125;-63
2023/03/03 03:55:45;;;;;;;83.40;14.27;;;15.20;49.70;;;;;;5068609;28;20091;-65
2023/03/03 03:58:16;;;;;;;89.65;14.90;;;15.10;49.70;;;;;;5068829;28;20092;-65
2023/03/03 04:00:43;;;;;;;98.30;14.73;;;15.10;48.70;;;;;;5065145;28;20084;-68
2023/03/03 04:03:10;;;;;;;78.03;13.27;;;15.20;49.00;;;;;;5067366;28;20092;-66
2023/03/03 04:05:37;;;;;;;67.18;12.15;;;15.10;48.80;;;;;;5067687;28;20103;-66
2023/03/03 04:08:03;;;;;;;69.65;11.30;;;15.10;49.00;;;;;;5063793;28;20744;-66
2023/03/03 04:10:30;;;;;;;69.20;11.38;;;15.10;49.30;;;;;;5067022;28;20103;-67
2023/03/03 04:12:56;;;;;;;39.92;8.40;;;15.10;49.30;;;;;;5066462;28;20064;-68
2023/03/03 04:15:23;;;;;;;50.90;10.18;;;15.10;48.20;;;;;;5067327;28;20080;-66
2023/03/03 04:17:49;;;;;;;68.78;10.35;;;15.10;48.80;;;;;;5067150;28;20551;-67
2023/03/03 04:20:16;;;;;;;50.45;10.25;;;15.10;48.90;;;;;;5072535;28;20124;-67
2023/03/03 04:22:43;;;;;;;62.65;10.23;;;15.10;48.60;;;;;;5072414;28;20076;-67
2023/03/03 04:25:13;;;;;;;50.40;9.75;;;15.10;48.70;;;;;;5072437;28;20548;-66
2023/03/03 04:27:40;;;;;;;55.80;10.57;;;15.10;49.00;;;;;;5072144;28;20072;-67
2023/03/03 04:30:07;;;;;;;55.72;12.18;;;15.00;50.00;;;;;;5072660;28;20436;-67
2023/03/03 04:32:33;;;;;;;65.55;11.50;;;15.00;50.00;;;;;;5072896;28;20068;-68
2023/03/03 04:35:00;;;;;;;50.42;10.75;;;15.00;50.20;;;;;;5072436;28;20072;-66
2023/03/03 04:37:26;;;;;;;54.85;11.43;;;15.00;49.50;;;;;;5072347;28;20068;-68
2023/03/03 04:39:52;;;;;;;42.25;9.75;;;15.00;50.10;;;;;;5071482;28;20091;-66
2023/03/03 04:42:19;;;;;;;59.22;9.77;;;14.90;49.70;;;;;;5071612;28;20084;-66
2023/03/03 04:44:45;;;;;;;;;;;15.00;49.70;;;;;;5072136;28;20072;-66
2023/03/03 04:47:11;;;;;;;36.05;7.85;;;14.90;49.60;;;;;;5071362;28;20439;-68
2023/03/03 04:49:38;;;;;;;45.67;8.10;;;14.90;49.90;;;;;;5072824;28;20083;-66
2023/03/03 04:52:04;;;;;;;39.53;7.18;;;15.00;50.20;;;;;;5070714;28;20155;-68
2023/03/03 04:54:31;;;;;;;49.28;7.88;;;15.00;50.00;;;;;;5072235;28;20079;-69
2023/03/03 04:56:58;;;;;;;46.13;7.32;;;15.00;50.20;;;;;;5071726;28;20068;-67
2023/03/03 04:59:24;;;;;;;36.47;6.90;;;14.90;50.60;;;;;;5072082;28;20560;-66
2023/03/03 05:01:50;;;;;;;;;;;14.90;50.90;;;;;;5069888;28;20204;-69
2023/03/03 05:04:17;;;;;;;37.75;8.15;;;14.90;51.50;;;;;;5071456;28;19972;-66
2023/03/03 05:06:43;;;;;;;;;;;14.90;50.90;;;;;;5072105;28;20125;-65
2023/03/03 05:09:09;;;;;;;35.47;7.70;;;14.90;50.70;;;;;;5072539;28;19975;-66
2023/03/03 05:11:35;;;;;;;;;;;14.90;50.60;;;;;;5072720;28;20072;-68
2023/03/03 05:14:02;;;;;;;43.22;7.75;;;14.80;50.80;;;;;;5074752;28;19967;-67
2023/03/03 05:16:29;;;;;;;45.20;7.40;;;14.80;51.10;;;;;;5073350;28;20092;-66
2023/03/03 05:18:55;;;;;;;38.78;7.35;;;14.80;51.10;;;;;;5073630;28;20076;-67
2023/03/03 05:21:21;;;;;;;;;;;14.80;50.60;;;;;;5073068;28;20605;-66
2023/03/03 05:23:47;;;;;;;37.38;8.25;;;14.90;50.60;;;;;;5073091;28;20429;-66
2023/03/03 05:26:13;;;;;;;;;;;14.80;50.60;;;;;;5073138;28;20096;-67
2023/03/03 05:28:40;;;;;;;53.38;12.93;;;14.80;50.70;;;;;;5072669;28;20035;-64
2023/03/03 05:31:06;;;;;;;;;;;15.20;51.50;;;;;;5073082;28;20067;-64
2023/03/03 05:33:32;;;;;;;34.90;9.50;;;15.60;50.50;;;;;;5072180;28;20431;-64
2023/03/03 05:35:58;;;;;;;;;;;15.90;51.00;;;;;;5069440;28;20153;-64
2023/03/03 05:38:25;;;;;;;55.45;16.13;;;15.90;51.70;;;;;;5074787;28;19964;-64
2023/03/03 05:40:51;;;;;;;56.13;15.95;;;15.90;52.00;;;;;;5073642;28;20107;-66
2023/03/03 05:43:18;;;;;;;62.78;16.30;;;15.90;52.40;;;;;;5071497;28;20103;-65
2023/03/03 05:45:45;;;;;;;51.80;16.92;;;15.80;52.60;;;;;;5069373;28;20083;-65
2023/03/03 05:48:11;;;;;;;50.90;11.38;;;15.70;51.40;;;;;;5067583;28;20076;-67
2023/03/03 05:50:38;;;;;;;51.00;9.05;;;15.60;51.40;;;;;;5069489;28;20099;-64
2023/03/03 05:53:04;;;;;;;43.88;8.38;;;15.50;51.50;;;;;;5068874;28;20166;-66
2023/03/03 05:55:30;;;;;;;;;;;15.50;52.30;;;;;;5069342;28;20079;-65
2023/03/03 05:57:56;;;;;;;35.67;9.43;;;15.40;53.10;;;;;;5069194;28;19956;-65
2023/03/03 06:00:23;;;;;;;41.03;9.40;;;15.30;53.00;;;;;;5070157;28;20087;-64
2023/03/03 06:02:49;;;;;;;34.97;9.13;;;15.30;53.40;;;;;;5067895;28;20093;-64
2023/03/03 06:05:16;;;;;;;36.22;8.40;;;15.30;53.20;;;;;;5070751;28;20068;-66
2023/03/03 06:07:42;;;;;;;;;;;15.30;54.30;;;;;;5070976;28;20100;-64
2023/03/03 06:10:09;;;;;;;44.88;7.90;;;15.20;53.20;;;;;;5070282;28;19991;-65
2023/03/03 06:12:37;;;;;;;31.73;7.50;;;15.10;52.80;;;;;;5069861;28;20072;-66
2023/03/03 06:15:05;;;;;;;34.35;7.63;;;15.10;53.50;;;;;;5070505;28;20129;-63
2023/03/03 06:17:32;;;;;;;48.53;14.98;;;15.10;52.70;;;;;;5069817;28;20115;-64
2023/03/03 06:19:58;;;;;;;;;;;14.90;52.00;;;;;;5071298;28;20072;-65
2023/03/03 06:22:24;;;;;;;61.70;11.30;;;14.80;52.20;;;;;;5069124;28;19999;-66
2023/03/03 06:24:51;;;;;;;;;;;14.70;52.50;;;;;;5070089;28;20076;-66
2023/03/03 06:27:18;;;;;;;48.20;10.05;;;14.60;52.90;;;;;;5068127;28;19951;-65
2023/03/03 06:29:45;;;;;;;37.80;10.02;;;14.60;53.10;;;;;;5068889;28;20482;-65
2023/03/03 06:32:11;;;;;;;;;;;14.60;54.40;;;;;;5068524;28;20593;-64
2023/03/03 06:34:37;;;;;;;35.80;8.75;;;14.60;54.80;;;;;;5069687;28;19975;-64
2023/03/03 06:37:03;;;;;;;;;;;14.50;54.40;;;;;;5069727;28;20132;-65
2023/03/03 06:39:30;;;;;;;33.17;8.73;;;14.30;53.70;;;;;;5068927;28;19963;-64
2023/03/03 06:41:56;;;;;;;;;;;14.20;53.70;;;;;;5068653;28;20100;-64
2023/03/03 06:44:22;;;;;;;42.25;9.48;;;14.30;54.20;;;;;;5069783;28;19976;-66
2023/03/03 06:46:48;;;;;;;;;;;14.20;54.50;;;;;;5069427;28;20113;-64
2023/03/03 06:49:14;;;;;;;47.50;9.73;;;14.20;55.10;;;;;;5069045;28;19955;-65
2023/03/03 06:51:42;;;;;;;;;;;14.20;55.60;;;;;;5069851;28;20092;-65
2023/03/03 06:54:15;;;;;;;46.50;10.23;;;14.10;55.00;;;;;;5068844;28;19969;-62
2023/03/03 06:56:43;;;;;;;44.53;11.48;;;14.10;55.10;;;;;;5067329;28;20076;-65
2023/03/03 06:59:18;;;;;;;48.17;13.20;;;14.10;54.40;;;;;;5068543;28;20090;-65
2023/03/03 07:01:46;;;;;;;45.70;17.95;;;14.00;54.70;;;;;;5068774;28;20067;-64
2023/03/03 07:04:32;;;;;;;54.17;20.10;;;14.00;55.60;;;;;;5066105;28;20644;-65
2023/03/03 07:07:15;;;;;;;46.53;13.90;;;14.00;55.30;;;;;;5067247;28;20480;-64
2023/03/03 07:09:44;;;;;;;45.22;11.93;;;13.90;55.80;;;;;;5067463;28;20080;-65
2023/03/03 07:12:26;;;;;;;42.85;10.25;;;13.90;55.80;;;;;;5066619;28;20075;-65
2023/03/03 07:15:13;;;;;;;45.72;11.85;;;13.90;56.10;;;;;;5068141;28;20080;-64
2023/03/03 07:17:44;;;;;;;47.95;12.15;;;13.80;55.90;;;;;;5068102;28;20169;-65
2023/03/03 07:20:40;;;;;;;40.92;11.60;;;13.70;56.90;;;;;;5067262;28;20068;-64
2023/03/03 07:23:18;;;;;;;58.25;12.85;;;13.70;56.40;;;;;;5054657;28;20188;-64
2023/03/03 07:25:45;;;;;;;61.58;14.13;;;13.40;55.80;;;;;;5064404;28;20418;-64
2023/03/03 07:28:24;;;;;;;47.75;11.60;;;13.30;56.60;;;;;;5067369;28;20564;-65
2023/03/03 07:30:51;;;;;;;46.35;13.18;;;13.20;56.80;;;;;;5067349;28;20081;-65
2023/03/03 07:33:34;;;;;;;46.92;13.07;;;13.30;57.40;;;;;;5068080;28;20579;-65
2023/03/03 07:36:02;;;;;;;45.80;13.05;;;13.10;57.00;;;;;;5067791;28;20129;-64
2023/03/03 07:38:35;;;;;;;44.90;13.75;;;13.10;57.30;;;;;;5067934;28;20064;-66
2023/03/03 07:41:04;;;;;;;44.05;12.88;;;13.00;57.90;;;;;;5067043;28;20096;-65
2023/03/03 07:43:38;;;;;;;41.58;12.75;;;12.90;58.00;;;;;;5067854;28;20110;-64
2023/03/03 07:46:21;;;;;;;37.03;10.43;;;12.80;59.00;;;;;;5067018;28;20091;-66
2023/03/03 07:48:48;;;;;;;30.95;9.27;;;12.90;58.80;;;;;;5066372;28;20092;-64
2023/03/03 07:51:40;;;;;;;27.10;9.27;;;12.80;59.00;;;;;;5068307;28;20084;-64
2023/03/03 07:54:27;;;;;;;28.98;8.85;;;12.80;59.80;;;;;;5066235;28;20445;-65
2023/03/03 07:57:02;;;;;;;34.78;8.93;;;12.80;59.80;;;;;;5067480;28;20167;-66
2023/03/03 07:59:29;;;;;;;35.58;10.02;;;12.70;60.00;;;;;;5066686;28;20087;-65
2023/03/03 08:02:00;;;;;;;28.65;10.32;;;12.70;60.30;;;;;;5067320;28;20067;-65
2023/03/03 08:04:38;;;;;;;32.28;11.25;;;12.70;60.70;;;;;;5065122;28;20096;-65
2023/03/03 08:07:17;;;;;;;27.92;10.75;;;12.70;61.00;;;;;;5066588;28;20112;-64
2023/03/03 08:09:51;;;;;;;33.88;10.80;;;12.50;61.90;;;;;;5067208;28;20151;-64
2023/03/03 08:12:36;;;;;;;28.27;10.35;;;12.50;61.90;;;;;;5066872;28;20529;-66
2023/03/03 08:15:19;;;;;;;37.78;12.23;;;12.60;62.50;;;;;;5067978;28;20074;-65
2023/03/03 08:17:47;;;;;;;31.33;11.73;;;12.50;62.70;;;;;;5068053;28;20071;-66
2023/03/03 08:20:53;;;;;;;33.88;12.02;;;12.40;62.90;;;;;;5067708;28;20087;-66
2023/03/03 08:23:20;;;;;;;31.88;11.13;;;12.40;63.30;;;;;;5005718;28;20128;-65
2023/03/03 08:25:48;;;;;;;27.20;10.40;;;12.30;63.70;;;;;;5006529;28;20589;-64
2023/03/03 08:28:15;;;;;;;27.27;8.73;;;12.20;63.90;;;;;;5006860;28;20094;-65
2023/03/03 08:30:43;;;;;;;23.65;7.47;;;12.20;63.20;;;;;;5007566;28;21392;-66
2023/03/03 08:33:09;;;;;;;27.15;10.98;;;12.20;63.50;;;;;;5006467;28;20116;-64
2023/03/03 08:35:35;;;;;;;;;;;12.20;64.20;;;;;;5007523;28;20104;-66
2023/03/03 08:38:02;;;;;;;21.55;6.70;;;12.10;64.60;;;;;;5006718;28;19969;-66
2023/03/03 08:40:29;;;;;;;25.83;6.43;;;12.00;65.20;;;;;;5005912;28;20107;-64
2023/03/03 08:42:57;;;;;;;29.27;6.43;;;11.90;65.40;;;;;;5006291;28;20090;-66
2023/03/03 08:45:24;;;;;;;21.25;6.13;;;11.90;66.00;;;;;;4990894;28;20145;-66
2023/03/03 08:47:51;;;;;;;20.50;6.00;;;11.80;66.50;;;;;;5006886;28;20560;-65
2023/03/03 08:50:18;;;;;;;21.30;5.65;;;11.80;66.70;;;;;;5007512;28;20093;-66
2023/03/03 08:52:44;;;;;;;14.95;5.57;;;11.80;67.00;;;;;;5006997;28;20132;-64
2023/03/03 08:55:11;;;;;;;16.80;5.65;;;11.80;66.90;;;;;;5004848;28;20157;-64
2023/03/03 08:57:38;;;;;;;26.60;6.25;;;11.80;67.40;;;;;;5009145;28;20090;-65
2023/03/03 09:00:08;;;;;;;22.15;6.43;;;11.90;67.80;;;;;;5067756;28;20077;-63
2023/03/03 09:02:34;;;;;;;21.90;7.32;;;11.90;67.80;;;;;;5067918;28;20090;-64
2023/03/03 09:05:00;;;;;;;;;;;11.80;68.20;;;;;;5068780;28;20159;-66
2023/03/03 09:07:27;;;;;;;20.73;8.38;;;11.70;68.50;;;;;;5069993;28;20027;-64
2023/03/03 09:09:53;;;;;;;23.92;9.00;;;11.70;69.90;;;;;;5071138;28;20170;-65
2023/03/03 09:12:24;;;;;;;;;;;11.70;70.60;;;;;;5071960;28;20069;-65
2023/03/03 09:14:51;;;;;;;20.35;8.02;;;11.50;70.70;;;;;;5072884;28;20421;-65
2023/03/03 09:17:32;;;;;;;22.55;7.00;;;11.30;71.30;;;;;;5071756;28;20093;-66
2023/03/03 09:20:56;;;;;;;18.05;6.20;;;11.30;71.50;;;;;;5071893;28;20075;-65
2023/03/03 09:23:38;;;;;;;15.07;5.30;;;11.30;71.40;;;;;;4971118;28;20189;-66
2023/03/03 09:26:17;;;;;;;14.18;5.38;;;11.40;71.50;;;;;;4970449;28;20067;-65
2023/03/03 09:28:43;;;;;;;30.33;7.70;;;11.40;72.00;;;;;;4970642;28;20106;-65
2023/03/03 09:31:35;;;;;;;;;;;11.30;71.30;;;;;;4970480;28;20100;-66
2023/03/03 09:34:11;;;;;;;21.60;11.07;;;11.20;71.90;;;;;;4969498;28;19969;-66
2023/03/03 09:36:38;;;;;;;30.50;13.57;;;11.10;73.20;;;;;;4970118;28;20091;-66
2023/03/03 09:39:17;;;;;;;;;;;11.20;73.80;;;;;;4970939;28;20422;-65
2023/03/03 09:41:49;;;;;;;32.97;16.70;;;11.10;73.60;;;;;;4970499;28;19970;-65
2023/03/03 09:44:41;;;;;;;39.72;18.70;;;11.20;74.50;;;;;;4971162;28;20087;-66
2023/03/03 09:47:28;;;;;;;45.85;21.20;;;11.10;74.80;;;;;;4969739;28;20098;-65
2023/03/03 09:50:32;;;;;;;70.15;49.47;;;11.10;75.40;;;;;;4969370;28;20098;-66
2023/03/03 09:53:21;;;;;;;77.93;48.28;;;10.90;75.80;;;;;;4970331;28;20083;-64
2023/03/03 09:55:57;;;;;;;47.47;28.77;;;10.90;76.90;;;;;;4970510;28;20625;-65
2023/03/03 09:58:44;;;;;;;29.73;14.52;;;10.80;77.40;;;;;;4970937;28;20084;-65
2023/03/03 10:01:28;;;;;;;27.10;11.20;;;10.70;78.20;;;;;;5070154;28;20100;-67
2023/03/03 10:04:06;;;;;;;25.38;10.80;;;10.70;79.00;;;;;;5070216;28;20100;-65
2023/03/03 10:06:53;;;;;;;34.78;11.63;;;10.70;79.50;;;;;;5067307;28;20101;-65
2023/03/03 10:09:56;;;;;;;29.67;10.43;;;10.70;79.90;;;;;;5069326;28;20092;-66
2023/03/03 10:12:33;;;;;;;25.83;9.60;;;10.70;80.60;;;;;;5068613;28;20076;-65
2023/03/03 10:15:08;;;;;;;36.38;12.82;;;10.80;80.80;;;;;;5069598;28;20110;-66
2023/03/03 10:17:48;;;;;;;35.63;13.15;;;10.60;82.00;;;;;;5069164;28;20108;-66
2023/03/03 10:20:33;;;;;;;34.25;12.57;;;10.70;82.30;;;;;;5070159;28;20146;-65
2023/03/03 10:23:19;;;;;;;28.52;11.52;;;10.50;82.40;;;;;;5069769;28;20096;-65
2023/03/03 10:25:58;;;;;;;26.60;10.73;;;10.50;83.80;;;;;;5068985;28;20084;-65
2023/03/03 10:28:52;;;;;;;29.15;9.40;;;10.60;83.40;;;;;;5070288;28;20075;-66
2023/03/03 10:31:40;;;;;;;16.25;8.18;;;10.40;84.20;;;;;;5069911;28;20102;-64
2023/03/03 10:34:16;;;;;;;21.92;8.13;;;10.20;85.50;;;;;;5068611;28;20100;-67
2023/03/03 10:37:06;;;;;;;17.30;8.13;;;10.20;85.80;;;;;;5068605;28;20081;-65
2023/03/03 10:39:48;;;;;;;19.08;8.27;;;10.20;86.70;;;;;;5070109;28;20146;-63
2023/03/03 10:42:19;;;;;;;25.23;7.55;;;10.00;87.30;;;;;;5069871;28;20064;-64
2023/03/03 10:45:20;;;;;;;16.90;6.65;;;10.10;88.00;;;;;;5070751;28;20080;-65
2023/03/03 10:48:08;;;;;;;18.73;7.00;;;10.10;87.70;;;;;;5069514;28;20569;-64
2023/03/03 10:50:52;;;;;;;22.45;6.63;;;10.20;88.10;;;;;;5069865;28;20522;-66
2023/03/03 10:53:29;;;;;;;18.42;5.28;;;10.20;87.90;;;;;;5069957;28;20077;-66
2023/03/03 10:56:32;;;;;;;17.55;5.20;;;10.20;87.60;;;;;;5069504;28;20469;-64
2023/03/03 10:59:36;;;;;;;16.83;5.18;;;10.30;87.70;;;;;;5070619;28;21645;-64
2023/03/03 11:02:12;;;;;;;14.82;4.88;;;10.20;87.60;;;;;;5069233;28;20075;-64
2023/03/03 11:04:51;;;;;;;18.83;4.97;;;10.20;88.10;;;;;;5068429;28;20087;-65
2023/03/03 11:07:21;;;;;;;22.02;4.82;;;10.10;88.70;;;;;;5065965;28;20113;-66
2023/03/03 11:09:53;;;;;;;15.95;4.68;;;10.20;89.30;;;;;;5068376;28;20067;-64
2023/03/03 11:12:46;;;;;;;15.05;5.10;;;10.20;89.50;;;;;;5068049;28;20065;-64
2023/03/03 11:15:43;;;;;;;13.07;4.57;;;10.10;90.20;;;;;;5068980;28;20073;-64
2023/03/03 11:18:22;;;;;;;17.20;4.88;;;10.10;90.50;;;;;;5068787;28;20155;-65
2023/03/03 11:21:03;;;;;;;12.95;4.50;;;10.10;90.70;;;;;;5069784;28;20092;-65
2023/03/03 11:23:38;;;;;;;15.30;4.28;;;10.00;90.80;;;;;;5069142;28;20088;-65
2023/03/03 11:26:33;;;;;;;19.40;4.32;;;9.90;91.20;;;;;;5067939;28;20085;-66
2023/03/03 11:29:17;;;;;;;9.85;3.78;;;9.90;91.50;;;;;;5067196;28;20069;-66
2023/03/03 11:31:55;;;;;;;12.65;4.70;;;9.80;91.80;;;;;;5069464;28;20150;-65
2023/03/03 11:34:40;;;;;;;17.73;4.60;;;9.70;92.10;;;;;;5069659;28;20162;-66
2023/03/03 11:37:27;;;;;;;15.30;5.15;;;9.80;92.60;;;;;;5068993;28;20126;-65
2023/03/03 11:39:57;;;;;;;19.77;5.53;;;9.90;92.50;;;;;;5067480;28;20080;-66
2023/03/03 11:42:56;;;;;;;17.55;5.65;;;9.80;92.50;;;;;;5069206;28;20167;-65
2023/03/03 11:45:40;;;;;;;24.23;6.30;;;9.80;92.60;;;;;;5069107;28;20080;-66
2023/03/03 11:48:11;;;;;;;15.55;6.25;;;9.80;93.00;;;;;;5068677;28;20167;-65
2023/03/03 11:50:49;;;;;;;21.05;6.82;;;9.80;92.60;;;;;;5068659;28;20073;-65
2023/03/03 11:53:54;;;;;;;20.08;7.90;;;9.80;92.70;;;;;;5068957;28;20126;-66
2023/03/03 11:56:23;;;;;;;25.45;8.55;;;9.70;92.70;;;;;;5041130;28;20611;-65
2023/03/03 11:59:04;;;;;;;27.65;10.02;;;9.70;92.80;;;;;;5068596;28;20108;-65
2023/03/03 12:01:41;;;;;;;28.67;12.70;;;9.50;93.00;;;;;;5069012;28;20088;-65
2023/03/03 12:04:19;;;;;;;41.33;12.95;;;9.50;93.40;;;;;;5068389;28;20161;-63
2023/03/03 12:07:13;;;;;;;29.73;11.55;;;9.50;93.50;;;;;;5067532;28;20112;-66
2023/03/03 12:09:49;;;;;;;25.73;12.32;;;9.50;93.40;;;;;;5068171;28;20570;-65
2023/03/03 12:12:23;;;;;;;36.30;12.48;;;9.60;93.40;;;;;;5066069;28;20173;-66
2023/03/03 12:15:19;;;;;;;25.88;13.15;;;9.50;93.40;;;;;;5069044;28;20069;-66
2023/03/03 12:18:03;;;;;;;29.10;14.13;;;9.50;93.40;;;;;;5032710;28;20165;-64
2023/03/03 12:21:14;;;;;;;30.33;13.95;;;9.50;93.30;;;;;;5069089;28;20128;-67
2023/03/03 12:23:50;;;;;;;33.20;13.43;;;9.40;93.40;;;;;;5067759;28;20557;-65
2023/03/03 12:26:25;;;;;;;31.48;15.13;;;9.30;93.60;;;;;;5068695;28;20092;-65
2023/03/03 12:29:06;;;;;;;31.65;14.77;;;9.30;93.70;;;;;;5069578;28;20135;-65
2023/03/03 12:31:54;;;;;;;35.50;14.45;;;9.30;93.60;;;;;;5067203;28;20077;-64
2023/03/03 12:34:27;;;;;;;33.80;15.18;;;9.20;93.70;;;;;;5067848;28;20208;-65
2023/03/03 12:37:22;;;;;;;33.45;14.45;;;9.30;94.20;;;;;;5067349;28;20168;-66
2023/03/03 12:40:28;;;;;;;28.30;14.40;;;9.30;94.30;;;;;;5069374;28;20447;-65
2023/03/03 12:43:34;;;;;;;28.08;14.07;;;9.20;94.20;;;;;;4990527;28;20102;-66
2023/03/03 12:46:50;;;;;;;28.08;13.73;;;9.20;94.50;;;;;;4991365;28;20087;-67
2023/03/03 12:49:18;;;;;;;26.65;13.43;;;9.10;94.50;;;;;;4975189;28;20162;-64
2023/03/03 12:51:48;;;;;;;35.08;14.93;;;9.00;95.10;;;;;;4991716;28;20083;-66
2023/03/03 12:54:40;;;;;;;41.42;17.15;;;9.10;95.30;;;;;;4991114;28;20093;-65
2023/03/03 12:57:34;;;;;;;45.60;18.27;;;9.10;95.30;;;;;;4985016;28;20133;-64
2023/03/03 13:00:17;;;;;;;50.63;22.50;;;9.10;95.20;;;;;;4989515;28;20453;-64
2023/03/03 13:03:00;;;;;;;53.92;23.38;;;9.10;95.10;;;;;;4990810;28;20156;-66
2023/03/03 13:05:46;;;;;;;60.40;23.55;;;9.10;95.20;;;;;;4990797;28;20229;-64
2023/03/03 13:08:39;;;;;;;48.92;20.35;;;9.10;95.20;;;;;;4989843;28;20127;-65
2023/03/03 13:11:12;;;;;;;37.03;18.65;;;8.90;95.20;;;;;;4990818;28;20145;-65
2023/03/03 13:13:58;;;;;;;49.53;18.17;;;8.80;95.50;;;;;;4990669;28;20079;-64
2023/03/03 13:16:30;;;;;;;45.58;18.17;;;8.60;95.70;;;;;;4990911;28;20091;-66